Darwin, CA

4:46 AM PST on March 02, 2015 (GMT -0800)
China Lake NAWS | Change Station
CLOSE
Current Station
Airport
Location: China Lake,
Elevation: 2283 ft
Nearby Weather Stations

Elev 2283 ft 35.69 °N, 117.69 °W | Updated 50 minutes ago

Mostly Cloudy
Mostly Cloudy
42 °F
Feels Like 40 °F
N
4
Wind Variable Wind from WSW

Today
High -- | Low -- °F
--% Chance of Precip.
Yesterday
High -- | Low -- °F
Precip. -- in
6:19 AM 5:46 PM
Waxing Gibbous, 91% visible
Pressure 29.84 in
Visibility -9999.0 miles
Clouds Scattered Clouds 3400 ft
Mostly Cloudy 4400 ft
Windchill 40 °F
Dew Point 39 °F
Humidity 89%
Rainfall 0.00 in
Snow Depth Not available.
UV 0 out of 12
Pollen 7.90 out of 12
Air Quality Not available.
Flu Activity Not available.
METAR KNID 021156Z AUTO 24003KT SCT034 BKN044 06/04 A2983 RMK AO2 SLP105 60000 70003 T00560039 10072 20056 58021 $

More Conditions Fewer Conditions

Pressure 29.84 in
Visibility -9999.0 miles
Clouds Scattered Clouds 3400 ft
Mostly Cloudy 4400 ft
Windchill 40 °F
Dew Point 39 °F
Humidity 89%
Rainfall 0.00 in
Snow Depth Not available.
UV 0 out of 12
Pollen 7.90 out of 12
Air Quality Not available.
Flu Activity Not available.
METAR KNID 021156Z AUTO 24003KT SCT034 BKN044 06/04 A2983 RMK AO2 SLP105 60000 70003 T00560039 10072 20056 58021 $

More Conditions Fewer Conditions

10-Day Weather Forecast

Almanac

Astronomy

Mar. 02, 2015 Rise Set
Actual Time
Civil Twilight
Nautical Twilight
Astronomical Twilight
Moon
Length of Visible Light
Length of Day
Tomorrow will be .
, % of the Moon is Illuminated

Today's Extremes

State Highs State Lows

Community

WunderPhotos

Upload Photos

1,801,772 photos uploaded!

WunderBlogs® & News

Nearby

Air Quality

  Air Quality AQ Index Pollutant
Not available.

Snow Depth

Station Depth Elevation

Earthquake Activity

City Distance Mag. Time & Date
Minimum magnitude displayed is 2.5.

Coastal Water Temperatures

Place Temperature

Nearby Weather Stations